Henderson, Minnesota
Current Conditions -  °F | °C
As of 7:34 PM on Friday 24 Oct 2014 (Local Time) from KGYL Reporting Station
Clear Clear  
Wind Chill: 63°   Ceiling: Unl
Heat Index: 63°   Visibility: 10mi
Dew Point: 52°   Wind: 0mph
Humidity: 67%   Direction: NA
Pressure: 29.86"   Gusts: NA
Location:  44.53°N, 93.91°W
Report Text: KGYL 250034Z AUTO 00000KT 10SM CLR 17/11 A2986 RMK AO2 T01720110
Loading
Personal Weather Stations






























Interactive Weather Map
Tropical Storm Tracking
New forecast layout! Learn more

10-Day Weather Forecast

Advertisements
Track Severe Weather on mobile